This is the latest recevied weather packets stored in our database for station/object KCKV. If no packets are shown the sender has not sent any weather packets the latest 1 day(s).
| Time | Temp. | Humidity | Pressure | Rain* | Wind** | Luminosity | Snow |
|---|---|---|---|---|---|---|---|
| 1778031807 | 17.78° C | 82% | 1007.1 hPa | - | 2.68 m/s, 170° | - | - |
| 1778031207 | 17.78° C | 82% | 1007.1 hPa | - | 2.68 m/s, 170° | - | - |
| 1778030606 | 17.78° C | 82% | 1007.1 hPa | - | 2.68 m/s, 170° | - | - |
| 1778030008 | 17.78° C | 82% | 1007.1 hPa | - | 2.68 m/s, 170° | - | - |
| 1778029405 | 17.78° C | 82% | 1007.1 hPa | - | 2.68 m/s, 170° | - | - |
| 1778028808 | 17.78° C | 77% | 1007.5 hPa | - | 1.79 m/s, 160° | - | - |
| 1778028206 | 17.78° C | 77% | 1007.5 hPa | - | 1.79 m/s, 160° | - | - |
| 1778027606 | 17.78° C | 77% | 1007.5 hPa | - | 1.79 m/s, 160° | - | - |
| 1778027005 | 17.78° C | 77% | 1007.5 hPa | - | 1.79 m/s, 160° | - | - |
| 1778026411 | 17.78° C | 77% | 1007.5 hPa | - | 1.79 m/s, 160° | - | - |
| 1778025809 | 17.78° C | 77% | 1007.5 hPa | - | 1.79 m/s, 160° | - | - |
| 1778025209 | 17.78° C | 82% | 1008.1 hPa | - | 0 m/s | - | - |
| 1778024605 | 17.78° C | 82% | 1008.1 hPa | - | 0 m/s | - | - |
| 1778024009 | 17.78° C | 82% | 1008.1 hPa | - | 0 m/s | - | - |
| 1778023410 | 17.78° C | 77% | 1007.8 hPa | - | 1.79 m/s, 190° | - | - |
| 1778022809 | 17.78° C | 77% | 1008.1 hPa | - | 4.47 m/s, 200° | - | - |
| 1778022326 | 17.78° C | 77% | 1008.1 hPa | - | 4.47 m/s, 200° | - | - |
| 1778021611 | - | - | 1005.1 hPa | - | 6.71 m/s, 210° | - | - |
| 1778021006 | - | - | 1005.1 hPa | - | 6.71 m/s, 210° | - | - |
| 1778020407 | 18.89° C | 68% | 1005.1 hPa | - | 6.71 m/s, 210° | - | - |
| 1778019806 | 21.67° C | 53% | 1008.1 hPa | - | 10.73 m/s, 190° | - | - |
| 1778019207 | 21.67° C | 53% | 1008.1 hPa | - | 10.73 m/s, 190° | - | - |
| 1778018728 | 21.67° C | 53% | 1008.1 hPa | - | 10.73 m/s, 190° | - | - |
| 1778018010 | 22.78° C | 53% | 1005.1 hPa | - | 7.15 m/s, 200° | - | - |
| 1778017410 | 22.78° C | 53% | 1005.1 hPa | - | 7.15 m/s, 200° | - | - |
* Rain since midnight (hover to see other rain measurements)
** Current wind speed in m/s (hover to see current wind gust speed)